sensor_id;sensor_type;location;lat;lon;timestamp;P1;durP1;ratioP1;P2;durP2;ratioP2
69197;SDS011;56311;50.298;8.514;2023-05-16T00:00:00;47.2;;;32.9;;
69197;SDS011;56311;50.298;8.514;2023-05-16T00:02:00;47.9;;;33.1;;
69197;SDS011;56311;50.298;8.514;2023-05-16T00:04:00;46.1;;;31.6;;
69197;SDS011;56311;50.298;8.514;2023-05-16T00:06:00;44.3;;;31.6;;
69197;SDS011;56311;50.298;8.514;2023-05-16T00:08:00;47.2;;;33.0;;
69197;SDS011;56311;50.298;8.514;2023-05-16T00:10:00;53.1;;;40.3;;
69197;SDS011;56311;50.298;8.514;2023-05-16T00:12:00;83.4;;;64.2;;
69197;SDS011;56311;50.298;8.514;2023-05-16T00:14:00;49.1;;;32.5;;
69197;SDS011;56311;50.298;8.514;2023-05-16T00:16:00;45.8;;;31.5;;
69197;SDS011;56311;50.298;8.514;2023-05-16T00:18:00;42.6;;;30.2;;
69197;SDS011;56311;50.298;8.514;2023-05-16T00:20:00;44.9;;;29.7;;
69197;SDS011;56311;50.298;8.514;2023-05-16T00:22:00;42.3;;;30.7;;
69197;SDS011;56311;50.298;8.514;2023-05-16T00:24:00;43.8;;;30.1;;
69197;SDS011;56311;50.298;8.514;2023-05-16T00:26:00;42.0;;;30.1;;
69197;SDS011;56311;50.298;8.514;2023-05-16T00:28:00;40.9;;;29.0;;
69197;SDS011;56311;50.298;8.514;2023-05-16T00:30:00;42.9;;;29.6;;
69197;SDS011;56311;50.298;8.514;2023-05-16T00:32:00;38.9;;;28.2;;
69197;SDS011;56311;50.298;8.514;2023-05-16T00:34:00;41.3;;;29.3;;
69197;SDS011;56311;50.298;8.514;2023-05-16T00:36:00;40.7;;;28.5;;
69197;SDS011;56311;50.298;8.514;2023-05-16T00:38:00;39.8;;;28.5;;
69197;SDS011;56311;50.298;8.514;2023-05-16T00:40:00;39.6;;;28.7;;
69197;SDS011;56311;50.298;8.514;2023-05-16T00:42:00;41.3;;;28.6;;
69197;SDS011;56311;50.298;8.514;2023-05-16T00:44:00;41.5;;;29.7;;
69197;SDS011;56311;50.298;8.514;2023-05-16T00:46:00;42.8;;;29.5;;
69197;SDS011;56311;50.298;8.514;2023-05-16T00:48:00;40.7;;;28.9;;
69197;SDS011;56311;50.298;8.514;2023-05-16T00:50:00;40.2;;;28.7;;
69197;SDS011;56311;50.298;8.514;2023-05-16T00:52:00;43.2;;;30.2;;
69197;SDS011;56311;50.298;8.514;2023-05-16T00:54:00;44.6;;;31.6;;
69197;SDS011;56311;50.298;8.514;2023-05-16T00:56:00;50.4;;;32.9;;
69197;SDS011;56311;50.298;8.514;2023-05-16T00:58:00;49.6;;;33.5;;
69197;SDS011;56311;50.298;8.514;2023-05-16T01:00:00;50.8;;;32.7;;
69197;SDS011;56311;50.298;8.514;2023-05-16T01:02:00;47.7;;;33.1;;
69197;SDS011;56311;50.298;8.514;2023-05-16T01:04:00;50.6;;;34.2;;
69197;SDS011;56311;50.298;8.514;2023-05-16T01:06:00;50.5;;;35.3;;
69197;SDS011;56311;50.298;8.514;2023-05-16T01:08:00;53.9;;;34.9;;
69197;SDS011;56311;50.298;8.514;2023-05-16T01:10:00;52.0;;;35.5;;
69197;SDS011;56311;50.298;8.514;2023-05-16T01:12:01;52.6;;;35.1;;
69197;SDS011;56311;50.298;8.514;2023-05-16T01:14:02;51.7;;;36.0;;
69197;SDS011;56311;50.298;8.514;2023-05-16T01:16:02;57.4;;;37.6;;
69197;SDS011;56311;50.298;8.514;2023-05-16T01:18:02;51.3;;;36.0;;
69197;SDS011;56311;50.298;8.514;2023-05-16T01:20:02;51.8;;;36.1;;
69197;SDS011;56311;50.298;8.514;2023-05-16T01:22:01;57.4;;;36.8;;
69197;SDS011;56311;50.298;8.514;2023-05-16T01:24:02;53.3;;;36.5;;
69197;SDS011;56311;50.298;8.514;2023-05-16T01:28:00;54.7;;;36.6;;
69197;SDS011;56311;50.298;8.514;2023-05-16T01:30:00;51.4;;;35.7;;
69197;SDS011;56311;50.298;8.514;2023-05-16T01:32:00;52.6;;;35.8;;
69197;SDS011;56311;50.298;8.514;2023-05-16T01:34:00;51.9;;;35.3;;
69197;SDS011;56311;50.298;8.514;2023-05-16T01:36:02;55.7;;;36.0;;
69197;SDS011;56311;50.298;8.514;2023-05-16T01:38:02;49.5;;;34.3;;
69197;SDS011;56311;50.298;8.514;2023-05-16T01:40:02;47.8;;;34.7;;
69197;SDS011;56311;50.298;8.514;2023-05-16T01:42:02;46.7;;;32.6;;
69197;SDS011;56311;50.298;8.514;2023-05-16T01:44:01;47.7;;;34.0;;
69197;SDS011;56311;50.298;8.514;2023-05-16T01:46:02;47.9;;;33.7;;
69197;SDS011;56311;50.298;8.514;2023-05-16T01:48:04;49.3;;;33.4;;
69197;SDS011;56311;50.298;8.514;2023-05-16T01:50:02;50.2;;;33.2;;
69197;SDS011;56311;50.298;8.514;2023-05-16T01:52:01;45.8;;;31.8;;
69197;SDS011;56311;50.298;8.514;2023-05-16T01:54:02;46.9;;;33.0;;
69197;SDS011;56311;50.298;8.514;2023-05-16T01:56:00;46.8;;;30.9;;
69197;SDS011;56311;50.298;8.514;2023-05-16T01:58:00;47.5;;;31.5;;
69197;SDS011;56311;50.298;8.514;2023-05-16T02:00:00;44.7;;;31.2;;
69197;SDS011;56311;50.298;8.514;2023-05-16T02:02:00;41.1;;;30.6;;
69197;SDS011;56311;50.298;8.514;2023-05-16T02:04:00;44.4;;;31.8;;
69197;SDS011;56311;50.298;8.514;2023-05-16T02:06:00;41.6;;;30.7;;
69197;SDS011;56311;50.298;8.514;2023-05-16T02:08:00;45.3;;;31.1;;
69197;SDS011;56311;50.298;8.514;2023-05-16T02:10:00;44.2;;;31.2;;
69197;SDS011;56311;50.298;8.514;2023-05-16T02:12:01;45.7;;;31.8;;
69197;SDS011;56311;50.298;8.514;2023-05-16T02:14:00;42.7;;;31.5;;
69197;SDS011;56311;50.298;8.514;2023-05-16T02:16:00;42.1;;;30.7;;
69197;SDS011;56311;50.298;8.514;2023-05-16T02:18:00;42.5;;;29.9;;
69197;SDS011;56311;50.298;8.514;2023-05-16T02:20:00;45.4;;;30.9;;
69197;SDS011;56311;50.298;8.514;2023-05-16T02:22:00;44.1;;;30.8;;
69197;SDS011;56311;50.298;8.514;2023-05-16T02:24:00;45.3;;;31.1;;
69197;SDS011;56311;50.298;8.514;2023-05-16T02:26:00;43.4;;;30.4;;
69197;SDS011;56311;50.298;8.514;2023-05-16T02:28:00;43.2;;;31.0;;
69197;SDS011;56311;50.298;8.514;2023-05-16T02:30:00;43.4;;;30.6;;
69197;SDS011;56311;50.298;8.514;2023-05-16T02:32:00;45.1;;;31.2;;
69197;SDS011;56311;50.298;8.514;2023-05-16T02:34:00;45.7;;;30.8;;
69197;SDS011;56311;50.298;8.514;2023-05-16T02:36:00;44.1;;;29.8;;
69197;SDS011;56311;50.298;8.514;2023-05-16T02:38:00;44.0;;;30.3;;
69197;SDS011;56311;50.298;8.514;2023-05-16T02:40:00;47.5;;;30.9;;
69197;SDS011;56311;50.298;8.514;2023-05-16T02:42:00;42.8;;;30.4;;
69197;SDS011;56311;50.298;8.514;2023-05-16T02:44:00;45.0;;;30.3;;
69197;SDS011;56311;50.298;8.514;2023-05-16T02:46:00;43.7;;;31.1;;
69197;SDS011;56311;50.298;8.514;2023-05-16T02:48:00;45.0;;;30.6;;
69197;SDS011;56311;50.298;8.514;2023-05-16T02:50:00;48.0;;;31.4;;
69197;SDS011;56311;50.298;8.514;2023-05-16T02:52:00;49.4;;;31.7;;
69197;SDS011;56311;50.298;8.514;2023-05-16T02:54:00;46.2;;;31.0;;
69197;SDS011;56311;50.298;8.514;2023-05-16T02:56:00;47.3;;;31.5;;
69197;SDS011;56311;50.298;8.514;2023-05-16T02:58:00;47.5;;;30.8;;
69197;SDS011;56311;50.298;8.514;2023-05-16T03:00:00;46.9;;;31.0;;
69197;SDS011;56311;50.298;8.514;2023-05-16T03:02:00;50.3;;;30.5;;
69197;SDS011;56311;50.298;8.514;2023-05-16T03:04:00;44.5;;;29.8;;
69197;SDS011;56311;50.298;8.514;2023-05-16T03:06:00;42.3;;;28.9;;
69197;SDS011;56311;50.298;8.514;2023-05-16T03:08:00;44.0;;;29.1;;
69197;SDS011;56311;50.298;8.514;2023-05-16T03:10:00;47.0;;;29.5;;
69197;SDS011;56311;50.298;8.514;2023-05-16T03:12:00;46.4;;;28.6;;
69197;SDS011;56311;50.298;8.514;2023-05-16T03:14:00;45.2;;;29.8;;
69197;SDS011;56311;50.298;8.514;2023-05-16T03:16:00;43.7;;;28.7;;
69197;SDS011;56311;50.298;8.514;2023-05-16T03:18:00;46.7;;;29.4;;
69197;SDS011;56311;50.298;8.514;2023-05-16T03:20:00;45.3;;;28.8;;
69197;SDS011;56311;50.298;8.514;2023-05-16T03:22:00;47.3;;;28.5;;
69197;SDS011;56311;50.298;8.514;2023-05-16T03:24:00;43.0;;;28.1;;
69197;SDS011;56311;50.298;8.514;2023-05-16T03:26:00;48.7;;;28.6;;
69197;SDS011;56311;50.298;8.514;2023-05-16T03:28:00;44.1;;;27.8;;
69197;SDS011;56311;50.298;8.514;2023-05-16T03:30:00;43.7;;;26.7;;
69197;SDS011;56311;50.298;8.514;2023-05-16T03:32:00;40.5;;;25.6;;
69197;SDS011;56311;50.298;8.514;2023-05-16T03:34:00;41.3;;;26.6;;
69197;SDS011;56311;50.298;8.514;2023-05-16T03:36:00;43.3;;;26.0;;
69197;SDS011;56311;50.298;8.514;2023-05-16T03:38:00;41.0;;;25.3;;
69197;SDS011;56311;50.298;8.514;2023-05-16T03:40:00;41.5;;;25.2;;
69197;SDS011;56311;50.298;8.514;2023-05-16T03:42:00;39.2;;;24.6;;
69197;SDS011;56311;50.298;8.514;2023-05-16T03:44:00;39.1;;;24.4;;
69197;SDS011;56311;50.298;8.514;2023-05-16T03:46:00;38.1;;;24.2;;
69197;SDS011;56311;50.298;8.514;2023-05-16T03:48:00;36.4;;;23.4;;
69197;SDS011;56311;50.298;8.514;2023-05-16T03:50:00;39.5;;;23.7;;
69197;SDS011;56311;50.298;8.514;2023-05-16T03:52:00;40.6;;;23.1;;
69197;SDS011;56311;50.298;8.514;2023-05-16T03:54:00;36.9;;;22.6;;
69197;SDS011;56311;50.298;8.514;2023-05-16T03:56:00;37.4;;;22.3;;
69197;SDS011;56311;50.298;8.514;2023-05-16T03:58:00;33.9;;;21.6;;
69197;SDS011;56311;50.298;8.514;2023-05-16T04:00:00;34.7;;;21.6;;
69197;SDS011;56311;50.298;8.514;2023-05-16T04:02:00;35.3;;;21.7;;
69197;SDS011;56311;50.298;8.514;2023-05-16T04:04:00;35.4;;;21.2;;
69197;SDS011;56311;50.298;8.514;2023-05-16T04:06:02;34.8;;;20.4;;
69197;SDS011;56311;50.298;8.514;2023-05-16T04:08:00;35.6;;;21.4;;
69197;SDS011;56311;50.298;8.514;2023-05-16T04:10:00;36.2;;;21.1;;
69197;SDS011;56311;50.298;8.514;2023-05-16T04:12:00;32.0;;;20.2;;
69197;SDS011;56311;50.298;8.514;2023-05-16T04:14:00;30.8;;;20.2;;
69197;SDS011;56311;50.298;8.514;2023-05-16T04:16:00;32.5;;;19.4;;
69197;SDS011;56311;50.298;8.514;2023-05-16T04:18:00;30.1;;;18.4;;
69197;SDS011;56311;50.298;8.514;2023-05-16T04:20:00;28.7;;;17.9;;
69197;SDS011;56311;50.298;8.514;2023-05-16T04:22:00;28.5;;;17.5;;
69197;SDS011;56311;50.298;8.514;2023-05-16T04:24:00;28.0;;;17.5;;
69197;SDS011;56311;50.298;8.514;2023-05-16T04:26:00;28.8;;;17.0;;
69197;SDS011;56311;50.298;8.514;2023-05-16T04:28:00;22.6;;;14.5;;
69197;SDS011;56311;50.298;8.514;2023-05-16T04:30:00;22.6;;;14.3;;
69197;SDS011;56311;50.298;8.514;2023-05-16T04:32:00;23.1;;;13.8;;
69197;SDS011;56311;50.298;8.514;2023-05-16T04:34:00;19.7;;;12.8;;
69197;SDS011;56311;50.298;8.514;2023-05-16T04:36:00;19.0;;;11.9;;
69197;SDS011;56311;50.298;8.514;2023-05-16T04:38:00;17.9;;;11.1;;
69197;SDS011;56311;50.298;8.514;2023-05-16T04:40:00;17.0;;;10.4;;
69197;SDS011;56311;50.298;8.514;2023-05-16T04:42:00;15.1;;;9.4;;
69197;SDS011;56311;50.298;8.514;2023-05-16T04:44:00;15.5;;;9.8;;
69197;SDS011;56311;50.298;8.514;2023-05-16T04:46:00;15.2;;;8.7;;
69197;SDS011;56311;50.298;8.514;2023-05-16T04:48:00;11.9;;;8.0;;
69197;SDS011;56311;50.298;8.514;2023-05-16T04:50:00;12.3;;;7.8;;
69197;SDS011;56311;50.298;8.514;2023-05-16T04:52:00;12.4;;;7.5;;
69197;SDS011;56311;50.298;8.514;2023-05-16T04:54:00;11.1;;;7.5;;
69197;SDS011;56311;50.298;8.514;2023-05-16T04:56:00;11.5;;;7.3;;
69197;SDS011;56311;50.298;8.514;2023-05-16T04:58:00;13.2;;;7.2;;
69197;SDS011;56311;50.298;8.514;2023-05-16T05:00:00;10.4;;;7.0;;
69197;SDS011;56311;50.298;8.514;2023-05-16T05:02:00;10.7;;;6.7;;
69197;SDS011;56311;50.298;8.514;2023-05-16T05:04:00;11.0;;;6.8;;
69197;SDS011;56311;50.298;8.514;2023-05-16T05:06:00;11.4;;;6.6;;
69197;SDS011;56311;50.298;8.514;2023-05-16T05:08:00;11.6;;;6.9;;
69197;SDS011;56311;50.298;8.514;2023-05-16T05:10:00;10.7;;;6.0;;
69197;SDS011;56311;50.298;8.514;2023-05-16T05:12:00;9.6;;;5.9;;
69197;SDS011;56311;50.298;8.514;2023-05-16T05:14:00;9.1;;;6.1;;
69197;SDS011;56311;50.298;8.514;2023-05-16T05:16:00;9.4;;;5.7;;
69197;SDS011;56311;50.298;8.514;2023-05-16T05:18:00;8.9;;;5.3;;
69197;SDS011;56311;50.298;8.514;2023-05-16T05:20:00;9.3;;;5.0;;
69197;SDS011;56311;50.298;8.514;2023-05-16T05:22:00;7.7;;;4.5;;
69197;SDS011;56311;50.298;8.514;2023-05-16T05:24:00;7.3;;;4.3;;
69197;SDS011;56311;50.298;8.514;2023-05-16T05:26:00;6.5;;;3.9;;
69197;SDS011;56311;50.298;8.514;2023-05-16T05:28:00;5.8;;;3.6;;
69197;SDS011;56311;50.298;8.514;2023-05-16T05:30:00;6.7;;;3.1;;
69197;SDS011;56311;50.298;8.514;2023-05-16T05:32:00;7.1;;;3.0;;
69197;SDS011;56311;50.298;8.514;2023-05-16T05:34:00;4.9;;;2.3;;
69197;SDS011;56311;50.298;8.514;2023-05-16T05:36:00;4.6;;;2.2;;
69197;SDS011;56311;50.298;8.514;2023-05-16T05:38:00;6.0;;;2.3;;
69197;SDS011;56311;50.298;8.514;2023-05-16T05:40:00;5.7;;;2.3;;
69197;SDS011;56311;50.298;8.514;2023-05-16T05:42:00;4.2;;;1.7;;
69197;SDS011;56311;50.298;8.514;2023-05-16T05:44:00;4.2;;;1.6;;
69197;SDS011;56311;50.298;8.514;2023-05-16T05:46:00;4.4;;;1.6;;
69197;SDS011;56311;50.298;8.514;2023-05-16T05:48:00;4.7;;;1.6;;
69197;SDS011;56311;50.298;8.514;2023-05-16T05:50:00;3.4;;;1.4;;
69197;SDS011;56311;50.298;8.514;2023-05-16T05:52:00;4.1;;;1.4;;
69197;SDS011;56311;50.298;8.514;2023-05-16T05:54:00;4.3;;;1.6;;
69197;SDS011;56311;50.298;8.514;2023-05-16T05:56:00;4.1;;;1.3;;
69197;SDS011;56311;50.298;8.514;2023-05-16T05:58:00;2.8;;;1.1;;
69197;SDS011;56311;50.298;8.514;2023-05-16T06:00:00;3.1;;;1.2;;
69197;SDS011;56311;50.298;8.514;2023-05-16T06:02:00;3.5;;;1.2;;
69197;SDS011;56311;50.298;8.514;2023-05-16T06:04:00;3.8;;;2.1;;
69197;SDS011;56311;50.298;8.514;2023-05-16T06:06:00;9.0;;;6.4;;
69197;SDS011;56311;50.298;8.514;2023-05-16T06:08:00;6.1;;;3.0;;
69197;SDS011;56311;50.298;8.514;2023-05-16T06:10:00;2.7;;;1.0;;
69197;SDS011;56311;50.298;8.514;2023-05-16T06:12:00;2.3;;;0.9;;
69197;SDS011;56311;50.298;8.514;2023-05-16T06:14:00;3.9;;;1.0;;
69197;SDS011;56311;50.298;8.514;2023-05-16T06:16:00;4.2;;;1.0;;
69197;SDS011;56311;50.298;8.514;2023-05-16T06:18:00;2.7;;;1.1;;
69197;SDS011;56311;50.298;8.514;2023-05-16T06:20:00;3.5;;;1.1;;
69197;SDS011;56311;50.298;8.514;2023-05-16T06:22:00;4.2;;;1.2;;
69197;SDS011;56311;50.298;8.514;2023-05-16T06:24:00;3.1;;;1.2;;
69197;SDS011;56311;50.298;8.514;2023-05-16T06:26:00;2.7;;;1.2;;
69197;SDS011;56311;50.298;8.514;2023-05-16T06:28:00;2.9;;;1.1;;
69197;SDS011;56311;50.298;8.514;2023-05-16T06:30:00;4.0;;;1.2;;
69197;SDS011;56311;50.298;8.514;2023-05-16T06:32:00;3.3;;;1.4;;
69197;SDS011;56311;50.298;8.514;2023-05-16T06:34:00;2.9;;;1.1;;
69197;SDS011;56311;50.298;8.514;2023-05-16T06:36:00;4.1;;;1.1;;
69197;SDS011;56311;50.298;8.514;2023-05-16T06:38:00;2.8;;;1.1;;
69197;SDS011;56311;50.298;8.514;2023-05-16T06:40:00;2.9;;;1.0;;
69197;SDS011;56311;50.298;8.514;2023-05-16T06:42:00;3.1;;;0.9;;
69197;SDS011;56311;50.298;8.514;2023-05-16T06:44:00;2.2;;;0.7;;
69197;SDS011;56311;50.298;8.514;2023-05-16T06:46:00;2.4;;;0.8;;
69197;SDS011;56311;50.298;8.514;2023-05-16T06:48:00;2.2;;;0.8;;
69197;SDS011;56311;50.298;8.514;2023-05-16T06:50:00;2.2;;;0.6;;
69197;SDS011;56311;50.298;8.514;2023-05-16T06:52:00;3.0;;;0.7;;
69197;SDS011;56311;50.298;8.514;2023-05-16T06:54:00;2.7;;;0.6;;
69197;SDS011;56311;50.298;8.514;2023-05-16T06:56:00;2.2;;;0.7;;
69197;SDS011;56311;50.298;8.514;2023-05-16T06:58:00;1.9;;;0.6;;
69197;SDS011;56311;50.298;8.514;2023-05-16T07:00:00;2.1;;;0.6;;
69197;SDS011;56311;50.298;8.514;2023-05-16T07:02:00;2.0;;;0.7;;
69197;SDS011;56311;50.298;8.514;2023-05-16T07:04:00;1.5;;;0.5;;
69197;SDS011;56311;50.298;8.514;2023-05-16T07:06:00;7.1;;;4.2;;
69197;SDS011;56311;50.298;8.514;2023-05-16T07:08:00;3.2;;;1.1;;
69197;SDS011;56311;50.298;8.514;2023-05-16T07:10:00;1.9;;;0.5;;
69197;SDS011;56311;50.298;8.514;2023-05-16T07:12:00;2.8;;;1.1;;
69197;SDS011;56311;50.298;8.514;2023-05-16T07:14:00;2.3;;;0.5;;
69197;SDS011;56311;50.298;8.514;2023-05-16T07:16:00;1.6;;;0.5;;
69197;SDS011;56311;50.298;8.514;2023-05-16T07:18:00;1.9;;;0.5;;
69197;SDS011;56311;50.298;8.514;2023-05-16T07:20:00;1.8;;;0.6;;
69197;SDS011;56311;50.298;8.514;2023-05-16T07:22:00;2.4;;;0.5;;
69197;SDS011;56311;50.298;8.514;2023-05-16T07:24:00;2.2;;;0.5;;
69197;SDS011;56311;50.298;8.514;2023-05-16T07:26:00;3.8;;;0.6;;
69197;SDS011;56311;50.298;8.514;2023-05-16T07:28:00;3.7;;;1.7;;
69197;SDS011;56311;50.298;8.514;2023-05-16T07:30:00;2.5;;;0.7;;
69197;SDS011;56311;50.298;8.514;2023-05-16T07:32:00;3.1;;;1.1;;
69197;SDS011;56311;50.298;8.514;2023-05-16T07:34:00;9.2;;;7.6;;
69197;SDS011;56311;50.298;8.514;2023-05-16T07:36:00;3.4;;;0.9;;
69197;SDS011;56311;50.298;8.514;2023-05-16T07:38:00;1.9;;;0.5;;
69197;SDS011;56311;50.298;8.514;2023-05-16T07:40:00;2.4;;;0.6;;
69197;SDS011;56311;50.298;8.514;2023-05-16T07:42:00;2.3;;;0.5;;
69197;SDS011;56311;50.298;8.514;2023-05-16T07:44:00;3.5;;;1.3;;
69197;SDS011;56311;50.298;8.514;2023-05-16T07:46:00;2.1;;;0.6;;
69197;SDS011;56311;50.298;8.514;2023-05-16T07:48:00;3.5;;;0.7;;
69197;SDS011;56311;50.298;8.514;2023-05-16T07:50:00;2.6;;;0.7;;
69197;SDS011;56311;50.298;8.514;2023-05-16T07:52:00;3.5;;;0.8;;
69197;SDS011;56311;50.298;8.514;2023-05-16T07:54:00;5.3;;;1.8;;
69197;SDS011;56311;50.298;8.514;2023-05-16T07:56:00;13.1;;;9.7;;
69197;SDS011;56311;50.298;8.514;2023-05-16T07:58:00;10.6;;;6.8;;
69197;SDS011;56311;50.298;8.514;2023-05-16T08:00:00;9.2;;;6.6;;
69197;SDS011;56311;50.298;8.514;2023-05-16T08:02:00;3.7;;;1.2;;
69197;SDS011;56311;50.298;8.514;2023-05-16T08:04:00;4.5;;;1.7;;
69197;SDS011;56311;50.298;8.514;2023-05-16T08:06:00;5.8;;;1.1;;
69197;SDS011;56311;50.298;8.514;2023-05-16T08:08:00;5.1;;;2.0;;
69197;SDS011;56311;50.298;8.514;2023-05-16T08:10:00;8.9;;;6.1;;
69197;SDS011;56311;50.298;8.514;2023-05-16T08:12:00;8.9;;;6.1;;
69197;SDS011;56311;50.298;8.514;2023-05-16T08:14:00;3.1;;;1.0;;
69197;SDS011;56311;50.298;8.514;2023-05-16T08:16:00;5.6;;;1.3;;
69197;SDS011;56311;50.298;8.514;2023-05-16T08:18:00;2.6;;;0.9;;
69197;SDS011;56311;50.298;8.514;2023-05-16T08:20:00;5.0;;;1.1;;
69197;SDS011;56311;50.298;8.514;2023-05-16T08:22:00;3.1;;;1.2;;
69197;SDS011;56311;50.298;8.514;2023-05-16T08:24:00;4.8;;;1.3;;
69197;SDS011;56311;50.298;8.514;2023-05-16T08:26:00;3.3;;;0.9;;
69197;SDS011;56311;50.298;8.514;2023-05-16T08:28:00;4.4;;;1.1;;
69197;SDS011;56311;50.298;8.514;2023-05-16T08:30:00;5.0;;;3.1;;
69197;SDS011;56311;50.298;8.514;2023-05-16T08:32:00;3.5;;;1.3;;
69197;SDS011;56311;50.298;8.514;2023-05-16T08:34:00;3.9;;;1.3;;
69197;SDS011;56311;50.298;8.514;2023-05-16T08:36:00;6.1;;;1.1;;
69197;SDS011;56311;50.298;8.514;2023-05-16T08:38:00;4.5;;;1.2;;
69197;SDS011;56311;50.298;8.514;2023-05-16T08:40:00;3.5;;;1.0;;
69197;SDS011;56311;50.298;8.514;2023-05-16T08:42:00;4.8;;;1.3;;
69197;SDS011;56311;50.298;8.514;2023-05-16T08:44:00;10.4;;;2.2;;
69197;SDS011;56311;50.298;8.514;2023-05-16T08:46:00;3.6;;;1.2;;
69197;SDS011;56311;50.298;8.514;2023-05-16T08:48:00;4.0;;;1.4;;
69197;SDS011;56311;50.298;8.514;2023-05-16T08:50:00;3.6;;;1.1;;
69197;SDS011;56311;50.298;8.514;2023-05-16T08:52:00;4.7;;;1.4;;
69197;SDS011;56311;50.298;8.514;2023-05-16T08:54:02;5.0;;;1.5;;
69197;SDS011;56311;50.298;8.514;2023-05-16T08:56:00;7.2;;;1.3;;
69197;SDS011;56311;50.298;8.514;2023-05-16T08:58:00;4.8;;;1.2;;
69197;SDS011;56311;50.298;8.514;2023-05-16T09:00:00;4.9;;;1.2;;
69197;SDS011;56311;50.298;8.514;2023-05-16T09:02:00;4.2;;;1.1;;
69197;SDS011;56311;50.298;8.514;2023-05-16T09:04:00;6.4;;;1.3;;
69197;SDS011;56311;50.298;8.514;2023-05-16T09:06:01;3.9;;;1.2;;
69197;SDS011;56311;50.298;8.514;2023-05-16T09:08:00;7.3;;;1.4;;
69197;SDS011;56311;50.298;8.514;2023-05-16T09:10:00;5.0;;;1.4;;
69197;SDS011;56311;50.298;8.514;2023-05-16T09:12:00;4.8;;;1.6;;
69197;SDS011;56311;50.298;8.514;2023-05-16T09:14:00;5.5;;;1.8;;
69197;SDS011;56311;50.298;8.514;2023-05-16T09:16:07;5.7;;;1.7;;
69197;SDS011;56311;50.298;8.514;2023-05-16T09:18:00;5.7;;;1.5;;
69197;SDS011;56311;50.298;8.514;2023-05-16T09:20:00;8.4;;;2.2;;
69197;SDS011;56311;50.298;8.514;2023-05-16T09:22:00;8.0;;;2.0;;
69197;SDS011;56311;50.298;8.514;2023-05-16T09:24:01;6.6;;;1.7;;
69197;SDS011;56311;50.298;8.514;2023-05-16T09:26:00;9.9;;;1.9;;
69197;SDS011;56311;50.298;8.514;2023-05-16T09:28:00;7.5;;;1.7;;
69197;SDS011;56311;50.298;8.514;2023-05-16T09:30:00;9.2;;;2.0;;
69197;SDS011;56311;50.298;8.514;2023-05-16T09:32:03;7.9;;;2.0;;
69197;SDS011;56311;50.298;8.514;2023-05-16T09:34:00;10.0;;;2.4;;
69197;SDS011;56311;50.298;8.514;2023-05-16T09:36:01;8.1;;;1.9;;
69197;SDS011;56311;50.298;8.514;2023-05-16T09:38:00;9.1;;;2.1;;
69197;SDS011;56311;50.298;8.514;2023-05-16T09:40:00;9.3;;;2.0;;
69197;SDS011;56311;50.298;8.514;2023-05-16T09:42:00;8.3;;;1.8;;
69197;SDS011;56311;50.298;8.514;2023-05-16T09:44:02;10.2;;;2.1;;
69197;SDS011;56311;50.298;8.514;2023-05-16T09:46:00;10.4;;;2.2;;
69197;SDS011;56311;50.298;8.514;2023-05-16T09:48:01;9.6;;;1.8;;
69197;SDS011;56311;50.298;8.514;2023-05-16T09:50:00;8.9;;;2.0;;
69197;SDS011;56311;50.298;8.514;2023-05-16T09:52:00;10.7;;;2.8;;
69197;SDS011;56311;50.298;8.514;2023-05-16T09:54:00;10.1;;;1.8;;
69197;SDS011;56311;50.298;8.514;2023-05-16T09:56:00;10.7;;;1.9;;
69197;SDS011;56311;50.298;8.514;2023-05-16T09:58:00;10.2;;;2.0;;
69197;SDS011;56311;50.298;8.514;2023-05-16T10:00:00;9.0;;;2.1;;
69197;SDS011;56311;50.298;8.514;2023-05-16T10:02:00;7.4;;;1.6;;
69197;SDS011;56311;50.298;8.514;2023-05-16T10:04:00;9.2;;;1.9;;
69197;SDS011;56311;50.298;8.514;2023-05-16T10:06:00;10.4;;;1.8;;
69197;SDS011;56311;50.298;8.514;2023-05-16T10:08:01;10.2;;;2.0;;
69197;SDS011;56311;50.298;8.514;2023-05-16T10:10:00;6.8;;;1.5;;
69197;SDS011;56311;50.298;8.514;2023-05-16T10:12:01;7.3;;;1.5;;
69197;SDS011;56311;50.298;8.514;2023-05-16T10:14:00;8.4;;;1.5;;
69197;SDS011;56311;50.298;8.514;2023-05-16T10:16:01;7.5;;;1.8;;
69197;SDS011;56311;50.298;8.514;2023-05-16T10:18:00;8.6;;;1.8;;
69197;SDS011;56311;50.298;8.514;2023-05-16T10:20:00;9.0;;;1.7;;
69197;SDS011;56311;50.298;8.514;2023-05-16T10:22:01;7.6;;;1.8;;
69197;SDS011;56311;50.298;8.514;2023-05-16T10:24:01;8.3;;;1.7;;
69197;SDS011;56311;50.298;8.514;2023-05-16T10:26:01;9.1;;;1.7;;
69197;SDS011;56311;50.298;8.514;2023-05-16T10:28:00;7.5;;;1.3;;
69197;SDS011;56311;50.298;8.514;2023-05-16T10:30:00;9.1;;;1.6;;
69197;SDS011;56311;50.298;8.514;2023-05-16T10:32:00;7.4;;;1.4;;
69197;SDS011;56311;50.298;8.514;2023-05-16T10:34:00;7.7;;;1.5;;
69197;SDS011;56311;50.298;8.514;2023-05-16T10:36:00;8.3;;;1.5;;
69197;SDS011;56311;50.298;8.514;2023-05-16T10:38:00;7.1;;;1.6;;
69197;SDS011;56311;50.298;8.514;2023-05-16T10:40:00;8.2;;;1.5;;
69197;SDS011;56311;50.298;8.514;2023-05-16T10:42:00;6.9;;;1.6;;
69197;SDS011;56311;50.298;8.514;2023-05-16T10:44:00;6.5;;;1.2;;
69197;SDS011;56311;50.298;8.514;2023-05-16T10:46:02;8.3;;;1.6;;
69197;SDS011;56311;50.298;8.514;2023-05-16T10:48:01;7.4;;;1.5;;
69197;SDS011;56311;50.298;8.514;2023-05-16T10:50:00;9.5;;;2.0;;
69197;SDS011;56311;50.298;8.514;2023-05-16T10:52:02;7.0;;;1.5;;
69197;SDS011;56311;50.298;8.514;2023-05-16T10:54:03;12.0;;;1.7;;
69197;SDS011;56311;50.298;8.514;2023-05-16T10:56:08;9.1;;;1.7;;
69197;SDS011;56311;50.298;8.514;2023-05-16T10:58:00;6.0;;;1.5;;
69197;SDS011;56311;50.298;8.514;2023-05-16T11:00:00;8.8;;;1.9;;
69197;SDS011;56311;50.298;8.514;2023-05-16T11:02:00;8.1;;;1.6;;
69197;SDS011;56311;50.298;8.514;2023-05-16T11:04:04;8.5;;;1.5;;
69197;SDS011;56311;50.298;8.514;2023-05-16T11:06:00;9.8;;;2.0;;
69197;SDS011;56311;50.298;8.514;2023-05-16T11:08:01;7.3;;;1.4;;
69197;SDS011;56311;50.298;8.514;2023-05-16T11:10:04;20.7;;;2.7;;
69197;SDS011;56311;50.298;8.514;2023-05-16T11:12:00;7.0;;;1.4;;
69197;SDS011;56311;50.298;8.514;2023-05-16T11:14:01;8.7;;;2.0;;
69197;SDS011;56311;50.298;8.514;2023-05-16T11:18:04;7.3;;;1.2;;
69197;SDS011;56311;50.298;8.514;2023-05-16T11:20:00;8.0;;;1.1;;
69197;SDS011;56311;50.298;8.514;2023-05-16T11:22:07;9.6;;;1.3;;
69197;SDS011;56311;50.298;8.514;2023-05-16T11:26:00;5.3;;;1.0;;
69197;SDS011;56311;50.298;8.514;2023-05-16T11:28:00;7.0;;;1.5;;
69197;SDS011;56311;50.298;8.514;2023-05-16T11:30:03;6.0;;;1.0;;
69197;SDS011;56311;50.298;8.514;2023-05-16T11:32:00;5.2;;;1.2;;
69197;SDS011;56311;50.298;8.514;2023-05-16T11:34:00;6.3;;;1.2;;
69197;SDS011;56311;50.298;8.514;2023-05-16T11:36:01;7.6;;;1.1;;
69197;SDS011;56311;50.298;8.514;2023-05-16T11:38:00;4.2;;;1.0;;
69197;SDS011;56311;50.298;8.514;2023-05-16T11:40:00;7.9;;;1.1;;
69197;SDS011;56311;50.298;8.514;2023-05-16T11:42:00;5.8;;;1.2;;
69197;SDS011;56311;50.298;8.514;2023-05-16T11:44:00;6.9;;;1.2;;
69197;SDS011;56311;50.298;8.514;2023-05-16T11:46:00;4.8;;;1.0;;
69197;SDS011;56311;50.298;8.514;2023-05-16T11:48:00;8.1;;;1.2;;
69197;SDS011;56311;50.298;8.514;2023-05-16T11:50:02;7.8;;;1.3;;
69197;SDS011;56311;50.298;8.514;2023-05-16T11:52:00;4.4;;;0.9;;
69197;SDS011;56311;50.298;8.514;2023-05-16T11:54:00;6.2;;;1.2;;
69197;SDS011;56311;50.298;8.514;2023-05-16T11:56:00;7.1;;;1.1;;
69197;SDS011;56311;50.298;8.514;2023-05-16T11:58:00;6.2;;;1.2;;
69197;SDS011;56311;50.298;8.514;2023-05-16T12:00:01;6.6;;;1.1;;
69197;SDS011;56311;50.298;8.514;2023-05-16T12:02:02;7.1;;;1.3;;
69197;SDS011;56311;50.298;8.514;2023-05-16T12:04:00;5.1;;;1.1;;
69197;SDS011;56311;50.298;8.514;2023-05-16T12:06:00;5.8;;;1.2;;
69197;SDS011;56311;50.298;8.514;2023-05-16T12:08:00;6.3;;;1.1;;
69197;SDS011;56311;50.298;8.514;2023-05-16T12:10:03;6.0;;;1.3;;
69197;SDS011;56311;50.298;8.514;2023-05-16T12:12:02;6.9;;;1.0;;
69197;SDS011;56311;50.298;8.514;2023-05-16T12:14:00;4.9;;;1.0;;
69197;SDS011;56311;50.298;8.514;2023-05-16T12:16:00;5.9;;;1.0;;
69197;SDS011;56311;50.298;8.514;2023-05-16T12:18:00;7.0;;;1.4;;
69197;SDS011;56311;50.298;8.514;2023-05-16T12:20:00;7.3;;;1.6;;